createdAt,value
2018-05-25T00:00:27.607Z,99.99
2018-05-25T00:01:27.691Z,99.99
2018-05-25T00:02:27.576Z,99.99
2018-05-25T00:03:27.569Z,99.99
2018-05-25T00:04:27.547Z,99.99
2018-05-25T00:05:27.533Z,99.99
2018-05-25T00:06:27.519Z,99.99
2018-05-25T00:07:27.539Z,99.99
2018-05-25T00:08:27.491Z,99.99
2018-05-25T00:09:27.487Z,99.99
2018-05-25T00:10:27.463Z,99.99
2018-05-25T00:11:27.449Z,99.99
2018-05-25T00:12:27.434Z,99.99
2018-05-25T00:13:27.424Z,99.99
2018-05-25T00:14:27.408Z,99.99
2018-05-25T00:15:27.392Z,99.99
2018-05-25T00:16:27.379Z,99.99
2018-05-25T00:17:27.363Z,99.99
2018-05-25T00:18:27.351Z,99.99
2018-05-25T00:19:27.340Z,99.99
2018-05-25T00:20:27.329Z,99.99
2018-05-25T00:21:27.311Z,99.99
2018-05-25T00:22:27.296Z,99.99
2018-05-25T00:23:27.281Z,99.99
2018-05-25T00:24:27.275Z,99.99
2018-05-25T00:25:27.253Z,99.99
2018-05-25T00:26:27.240Z,99.99
2018-05-25T00:27:27.232Z,99.99
2018-05-25T00:28:27.211Z,99.99
2018-05-25T00:29:27.193Z,99.99
2018-05-25T00:30:27.183Z,99.99
2018-05-25T00:31:27.170Z,99.99
2018-05-25T00:32:27.154Z,99.99
2018-05-25T00:33:27.141Z,99.99
2018-05-25T00:34:27.124Z,99.99
2018-05-25T00:35:27.111Z,99.99
2018-05-25T00:36:27.109Z,99.99
2018-05-25T00:37:27.081Z,99.99
2018-05-25T00:38:27.067Z,99.99
2018-05-25T00:39:27.053Z,99.99
2018-05-25T00:40:27.039Z,99.99
2018-05-25T00:41:27.027Z,99.99
2018-05-25T00:42:27.014Z,99.99
2018-05-25T00:43:26.995Z,99.99
2018-05-25T00:44:26.981Z,99.99
2018-05-25T00:45:26.967Z,99.99
2018-05-25T00:46:26.953Z,99.99
2018-05-25T00:47:26.938Z,99.99
2018-05-25T00:48:26.924Z,99.99
2018-05-25T00:49:26.918Z,99.99
2018-05-25T00:50:26.901Z,99.99
2018-05-25T00:51:26.891Z,99.99
2018-05-25T00:52:26.871Z,99.99
2018-05-25T00:53:26.853Z,99.99
2018-05-25T00:54:26.838Z,99.99
2018-05-25T00:55:26.826Z,99.99
2018-05-25T00:56:26.810Z,99.99
2018-05-25T00:57:26.802Z,99.99
2018-05-25T00:58:26.818Z,99.99
2018-05-25T00:59:26.768Z,99.99
2018-05-25T01:00:26.766Z,99.99
2018-05-25T01:01:26.741Z,99.99
2018-05-25T01:02:26.730Z,99.99
2018-05-25T01:03:26.711Z,99.99
2018-05-25T01:04:26.696Z,99.99
2018-05-25T01:05:26.835Z,99.99
2018-05-25T01:06:26.669Z,99.99
2018-05-25T01:07:26.654Z,99.99
2018-05-25T01:08:26.639Z,99.99
2018-05-25T01:09:26.624Z,99.99
2018-05-25T01:10:26.611Z,99.99
2018-05-25T01:11:26.598Z,99.99
2018-05-25T01:12:26.581Z,99.99
2018-05-25T01:13:26.569Z,99.99
2018-05-25T01:14:26.554Z,99.99
2018-05-25T01:15:26.539Z,99.99
2018-05-25T01:16:26.523Z,99.99
2018-05-25T01:17:26.510Z,99.99
2018-05-25T01:18:26.495Z,99.99
2018-05-25T01:19:26.481Z,99.99
2018-05-25T01:20:26.466Z,99.99
2018-05-25T01:21:26.454Z,99.99
2018-05-25T01:22:26.438Z,99.99
2018-05-25T01:23:26.425Z,99.99
2018-05-25T01:24:26.412Z,99.99
2018-05-25T01:25:26.395Z,99.99
2018-05-25T01:26:26.381Z,99.99
2018-05-25T01:27:26.374Z,99.99
2018-05-25T01:28:26.354Z,99.99
2018-05-25T01:29:26.336Z,99.99
2018-05-25T01:30:26.325Z,99.99
2018-05-25T01:31:26.310Z,99.99
2018-05-25T01:32:26.293Z,99.99
2018-05-25T01:33:26.279Z,99.99
2018-05-25T01:34:26.268Z,99.99
2018-05-25T01:35:26.254Z,99.99
2018-05-25T01:36:26.236Z,99.99
2018-05-25T01:37:26.222Z,99.99
2018-05-25T01:38:26.207Z,99.99
2018-05-25T01:39:26.195Z,99.99
2018-05-25T01:40:26.178Z,99.99
2018-05-25T01:41:26.165Z,99.99
2018-05-25T01:42:26.151Z,99.99
2018-05-25T01:43:26.146Z,99.99
2018-05-25T01:44:26.124Z,99.99
2018-05-25T01:45:26.108Z,99.99
2018-05-25T01:46:26.091Z,99.99
2018-05-25T01:47:26.080Z,99.99
2018-05-25T01:48:26.063Z,99.99
2018-05-25T01:49:26.069Z,99.99
2018-05-25T01:50:26.042Z,99.99
2018-05-25T01:51:26.028Z,99.99
2018-05-25T01:52:26.006Z,99.99
2018-05-25T01:53:25.992Z,99.99
2018-05-25T01:54:25.978Z,99.99
2018-05-25T01:55:25.971Z,99.99
2018-05-25T01:56:25.949Z,99.99
2018-05-25T01:57:25.934Z,99.99
2018-05-25T01:58:25.921Z,99.99
2018-05-25T01:59:25.910Z,99.99
2018-05-25T02:00:25.890Z,99.99
2018-05-25T02:01:25.877Z,99.99
2018-05-25T02:02:25.865Z,99.99
2018-05-25T02:03:25.857Z,99.99
2018-05-25T02:04:25.838Z,99.99
2018-05-25T02:05:25.819Z,99.99
2018-05-25T02:06:25.806Z,99.99
2018-05-25T02:07:25.893Z,99.99
2018-05-25T02:08:25.782Z,99.99
2018-05-25T02:09:25.765Z,99.99
2018-05-25T02:10:25.749Z,99.99
2018-05-25T02:11:25.744Z,99.99
2018-05-25T02:12:25.719Z,99.99
2018-05-25T02:13:25.704Z,99.99
2018-05-25T02:14:25.697Z,99.99
2018-05-25T02:15:25.676Z,99.99
2018-05-25T02:16:25.660Z,99.99
2018-05-25T02:17:25.648Z,99.99
2018-05-25T02:18:25.634Z,99.99
2018-05-25T02:19:25.617Z,99.99
2018-05-25T02:20:25.602Z,99.99
2018-05-25T02:21:25.623Z,99.99
2018-05-25T02:22:25.575Z,99.99
2018-05-25T02:23:25.564Z,99.99
2018-05-25T02:24:25.544Z,99.99
2018-05-25T02:25:25.531Z,99.99
2018-05-25T02:26:25.522Z,99.99
2018-05-25T02:27:25.510Z,99.99
2018-05-25T02:28:25.486Z,99.99
2018-05-25T02:29:25.679Z,99.99
2018-05-25T02:30:25.457Z,99.99
2018-05-25T02:31:25.446Z,99.99
2018-05-25T02:32:25.429Z,99.99
2018-05-25T02:33:25.418Z,99.99
2018-05-25T02:34:25.399Z,99.99
2018-05-25T02:35:25.386Z,99.99
2018-05-25T02:36:25.389Z,99.99
2018-05-25T02:37:25.359Z,99.99
2018-05-25T02:38:25.362Z,99.99
2018-05-25T02:39:25.327Z,99.99
2018-05-25T02:40:25.316Z,99.99
2018-05-25T02:41:25.299Z,99.99
2018-05-25T02:42:25.292Z,99.99
2018-05-25T02:43:25.269Z,99.99
2018-05-25T02:44:25.255Z,99.99
2018-05-25T02:45:25.250Z,99.99
2018-05-25T02:46:25.226Z,99.99
2018-05-25T02:47:25.213Z,99.99
2018-05-25T02:48:25.201Z,99.99
2018-05-25T02:49:25.186Z,99.99
2018-05-25T02:50:25.168Z,99.99
2018-05-25T02:51:25.154Z,99.99
2018-05-25T02:52:25.145Z,99.99
2018-05-25T02:53:25.127Z,99.99
2018-05-25T02:54:25.109Z,99.99
2018-05-25T02:55:25.096Z,99.99
2018-05-25T02:56:25.095Z,99.99
2018-05-25T02:57:25.069Z,99.99
2018-05-25T02:58:25.054Z,99.99
2018-05-25T02:59:25.059Z,99.99
2018-05-25T03:00:25.022Z,99.99
2018-05-25T03:01:25.010Z,99.99
2018-05-25T03:02:24.994Z,99.99
2018-05-25T03:03:24.981Z,99.99
2018-05-25T03:04:24.966Z,99.99
2018-05-25T03:05:24.956Z,99.99
2018-05-25T03:06:24.946Z,99.99
2018-05-25T03:07:24.926Z,99.99
2018-05-25T03:08:24.912Z,99.99
2018-05-25T03:09:24.896Z,99.99
2018-05-25T03:10:24.877Z,99.99
2018-05-25T03:11:24.861Z,99.99
2018-05-25T03:12:24.848Z,99.99
2018-05-25T03:13:24.833Z,99.99
2018-05-25T03:14:24.817Z,99.99
2018-05-25T03:15:24.812Z,99.99
2018-05-25T03:16:24.791Z,99.99
2018-05-25T03:17:24.775Z,99.99
2018-05-25T03:18:24.761Z,99.99
2018-05-25T03:19:24.744Z,99.99
2018-05-25T03:20:24.732Z,99.99
2018-05-25T03:21:24.716Z,99.99
2018-05-25T03:22:24.710Z,99.99
2018-05-25T03:23:24.685Z,99.99
2018-05-25T03:24:24.669Z,99.99
2018-05-25T03:25:24.657Z,99.99
2018-05-25T03:26:24.641Z,99.99
2018-05-25T03:27:24.627Z,99.99
2018-05-25T03:28:24.624Z,99.99
2018-05-25T03:29:24.598Z,99.99
2018-05-25T03:30:24.584Z,99.99
2018-05-25T03:31:24.569Z,99.99
2018-05-25T03:32:24.552Z,99.99
2018-05-25T03:33:24.539Z,99.99
2018-05-25T03:34:24.522Z,99.99
2018-05-25T03:35:24.517Z,99.99
2018-05-25T03:36:24.493Z,99.99
2018-05-25T03:37:24.478Z,99.99
2018-05-25T03:38:24.464Z,99.99
2018-05-25T03:39:24.509Z,99.99
2018-05-25T03:40:24.432Z,99.99
2018-05-25T03:41:24.424Z,99.99
2018-05-25T03:42:24.406Z,99.99
2018-05-25T03:43:24.392Z,99.99
2018-05-25T03:44:24.378Z,99.99
2018-05-25T03:45:24.361Z,99.99
2018-05-25T03:46:24.346Z,99.99
2018-05-25T03:47:24.336Z,99.99
2018-05-25T03:48:24.316Z,99.99
2018-05-25T03:49:24.301Z,99.99
2018-05-25T03:50:24.289Z,99.99
2018-05-25T03:51:24.274Z,99.99
2018-05-25T03:52:24.257Z,99.99
2018-05-25T03:53:24.253Z,99.99
2018-05-25T03:54:24.234Z,99.99
2018-05-25T03:55:24.215Z,99.99
2018-05-25T03:56:24.198Z,99.99
2018-05-25T03:57:24.186Z,99.99
2018-05-25T03:58:24.174Z,99.99
2018-05-25T03:59:24.156Z,99.99
2018-05-25T04:00:24.141Z,99.99
2018-05-25T04:01:24.133Z,99.99
2018-05-25T04:02:24.110Z,99.99
2018-05-25T04:03:24.096Z,99.99
2018-05-25T04:04:24.082Z,99.99
2018-05-25T04:05:24.068Z,99.99
2018-05-25T04:06:24.055Z,99.99
2018-05-25T04:07:24.040Z,99.99
2018-05-25T04:08:24.026Z,99.99
2018-05-25T04:09:24.010Z,99.99
2018-05-25T04:10:23.997Z,99.99
2018-05-25T04:11:23.981Z,99.99
2018-05-25T04:12:23.964Z,99.99
2018-05-25T04:13:23.950Z,99.99
2018-05-25T04:14:23.936Z,99.99
2018-05-25T04:15:23.923Z,99.99
2018-05-25T04:16:23.907Z,99.99
2018-05-25T04:17:23.896Z,99.99
2018-05-25T04:18:23.928Z,99.99
2018-05-25T04:19:23.864Z,99.99
2018-05-25T04:20:23.849Z,99.99
2018-05-25T04:21:23.845Z,99.99
2018-05-25T04:22:23.828Z,99.99
2018-05-25T04:23:23.807Z,99.99
2018-05-25T04:24:23.795Z,99.99
2018-05-25T04:25:23.775Z,99.99
2018-05-25T04:26:23.763Z,99.99
2018-05-25T04:27:23.756Z,99.99
2018-05-25T04:28:23.738Z,99.99
2018-05-25T04:29:23.719Z,99.99
2018-05-25T04:30:23.705Z,99.99
2018-05-25T04:31:23.695Z,99.99
2018-05-25T04:32:23.685Z,99.99
2018-05-25T04:33:23.660Z,99.99
2018-05-25T04:34:23.645Z,99.99
2018-05-25T04:35:23.631Z,99.99
2018-05-25T04:36:23.622Z,99.99
2018-05-25T04:37:23.602Z,99.99
2018-05-25T04:38:23.591Z,99.99
2018-05-25T04:39:23.579Z,99.99
2018-05-25T04:40:23.567Z,99.99
2018-05-25T04:41:23.544Z,99.99
2018-05-25T04:42:23.535Z,99.99
2018-05-25T04:43:23.518Z,99.99
2018-05-25T04:44:23.510Z,99.99
2018-05-25T04:45:23.490Z,99.99
2018-05-25T04:46:23.482Z,99.99
2018-05-25T04:47:23.458Z,99.99
2018-05-25T04:48:23.447Z,99.99
2018-05-25T04:49:23.441Z,99.99
2018-05-25T04:50:23.416Z,99.99
2018-05-25T04:51:23.417Z,99.99
2018-05-25T04:52:23.436Z,99.99
2018-05-25T04:53:23.372Z,99.99
2018-05-25T04:54:23.359Z,99.99
2018-05-25T04:55:23.344Z,99.99
2018-05-25T04:56:23.330Z,99.99
2018-05-25T04:57:23.332Z,99.99
2018-05-25T04:58:23.301Z,99.99
2018-05-25T04:59:23.298Z,99.99
2018-05-25T05:00:23.278Z,99.99
2018-05-25T05:01:23.261Z,99.99
2018-05-25T05:02:23.255Z,99.99
2018-05-25T05:03:23.233Z,99.99
2018-05-25T05:04:23.216Z,99.99
2018-05-25T05:05:23.304Z,99.99
2018-05-25T05:06:23.188Z,99.99
2018-05-25T05:07:23.175Z,99.99
2018-05-25T05:08:23.167Z,99.99
2018-05-25T05:09:23.147Z,99.99
2018-05-25T05:10:23.132Z,99.99
2018-05-25T05:11:23.172Z,99.99
2018-05-25T05:12:23.103Z,99.99
2018-05-25T05:13:23.090Z,99.99
2018-05-25T05:14:23.077Z,99.99
2018-05-25T05:15:23.073Z,99.99
2018-05-25T05:16:23.060Z,99.99
2018-05-25T05:17:23.037Z,99.99
2018-05-25T05:18:23.022Z,99.99
2018-05-25T05:19:23.007Z,99.99
2018-05-25T05:20:22.992Z,99.99
2018-05-25T05:21:22.980Z,99.99
2018-05-25T05:22:22.965Z,99.99
2018-05-25T05:23:22.961Z,99.99
2018-05-25T05:24:22.975Z,99.99
2018-05-25T05:25:22.924Z,99.99
2018-05-25T05:26:22.914Z,99.99
2018-05-25T05:27:22.895Z,99.99
2018-05-25T05:28:22.880Z,99.99
2018-05-25T05:29:22.866Z,99.99
2018-05-25T05:30:22.853Z,99.99
2018-05-25T05:31:22.843Z,99.99
2018-05-25T05:32:22.832Z,99.99
2018-05-25T05:33:22.812Z,99.99
2018-05-25T05:34:22.798Z,99.99
2018-05-25T05:35:22.792Z,99.99
2018-05-25T05:36:22.768Z,99.99
2018-05-25T05:37:22.804Z,99.99
2018-05-25T05:38:22.741Z,99.99
2018-05-25T05:39:22.737Z,99.99
2018-05-25T05:40:22.714Z,99.99
2018-05-25T05:41:22.700Z,99.99
2018-05-25T05:42:22.687Z,99.99
2018-05-25T05:43:22.671Z,99.99
2018-05-25T05:44:22.665Z,99.99
2018-05-25T05:45:22.646Z,99.99
2018-05-25T05:46:22.630Z,99.99
2018-05-25T05:47:22.618Z,99.99
2018-05-25T05:48:22.611Z,99.99
2018-05-25T05:49:22.589Z,99.99
2018-05-25T05:50:22.583Z,99.99
2018-05-25T05:51:22.575Z,99.99
2018-05-25T05:52:22.554Z,99.99
2018-05-25T05:53:22.585Z,99.99
2018-05-25T05:54:22.520Z,99.99
2018-05-25T05:55:22.516Z,99.99
2018-05-25T05:56:22.493Z,99.99
2018-05-25T05:57:22.488Z,99.99
2018-05-25T05:58:22.466Z,99.44
2018-05-25T05:59:22.453Z,99.98
2018-05-25T06:00:22.440Z,99.40
2018-05-25T06:01:22.428Z,99.40
2018-05-25T06:02:22.413Z,99.54
2018-05-25T06:03:22.403Z,98.96
2018-05-25T06:04:22.443Z,99.21
2018-05-25T06:05:22.381Z,99.40
2018-05-25T06:06:22.361Z,99.01
2018-05-25T06:07:22.344Z,98.53
2018-05-25T06:08:22.328Z,98.63
2018-05-25T06:09:22.318Z,98.63
2018-05-25T06:10:22.305Z,98.82
2018-05-25T06:11:22.298Z,98.14
2018-05-25T06:12:22.328Z,97.76
2018-05-25T06:13:22.264Z,98.72
2018-05-25T06:14:22.253Z,98.14
2018-05-25T06:15:22.238Z,98.44
2018-05-25T06:16:22.225Z,98.24
2018-05-25T06:17:22.212Z,97.67
2018-05-25T06:18:22.206Z,97.09
2018-05-25T06:19:22.185Z,97.24
2018-05-25T06:20:22.180Z,96.47
2018-05-25T06:21:22.158Z,96.56
2018-05-25T06:22:22.147Z,96.47
2018-05-25T06:23:22.142Z,95.79
2018-05-25T06:24:22.122Z,94.92
2018-05-25T06:25:22.132Z,94.35
2018-05-25T06:26:22.094Z,95.02
2018-05-25T06:27:22.089Z,94.78
2018-05-25T06:28:22.069Z,94.64
2018-05-25T06:29:22.056Z,96.37
2018-05-25T06:30:22.047Z,96.27
2018-05-25T06:31:22.033Z,95.70
2018-05-25T06:32:22.018Z,95.12
2018-05-25T06:33:22.004Z,94.73
2018-05-25T06:34:21.993Z,94.49
2018-05-25T06:35:21.987Z,94.25
2018-05-25T06:36:21.968Z,95.65
2018-05-25T06:37:21.954Z,96.08
2018-05-25T06:38:21.942Z,95.12
2018-05-25T06:39:21.990Z,95.12
2018-05-25T06:40:21.925Z,95.21
2018-05-25T06:41:21.912Z,94.30
2018-05-25T06:42:21.900Z,93.62
2018-05-25T06:43:21.879Z,92.38
2018-05-25T06:44:21.882Z,91.17
2018-05-25T06:45:21.855Z,89.00
2018-05-25T06:46:21.841Z,87.74
2018-05-25T06:47:21.832Z,88.81
2018-05-25T06:48:21.817Z,88.71
2018-05-25T06:49:21.804Z,87.70
2018-05-25T06:50:21.795Z,86.68
2018-05-25T06:51:21.780Z,86.54
2018-05-25T06:52:21.789Z,87.70
2018-05-25T06:53:21.756Z,87.70
2018-05-25T06:54:21.761Z,87.50
2018-05-25T06:55:21.742Z,85.81
2018-05-25T06:56:21.739Z,83.09
2018-05-25T06:57:21.713Z,81.45
2018-05-25T06:58:21.700Z,81.74
2018-05-25T06:59:21.691Z,81.51
2018-05-25T07:00:21.684Z,82.92
2018-05-25T07:01:21.676Z,84.94
2018-05-25T07:02:21.666Z,84.46
2018-05-25T07:03:21.653Z,84.17
2018-05-25T07:04:21.638Z,84.07
2018-05-25T07:05:21.628Z,83.11
2018-05-25T07:06:21.627Z,83.88
2018-05-25T07:07:21.609Z,84.61
2018-05-25T07:08:21.598Z,85.19
2018-05-25T07:09:21.589Z,84.17
2018-05-25T07:10:21.580Z,83.34
2018-05-25T07:11:21.569Z,82.32
2018-05-25T07:12:21.557Z,82.43
2018-05-25T07:13:21.553Z,83.11
2018-05-25T07:14:21.537Z,83.25
2018-05-25T07:15:21.527Z,82.86
2018-05-25T07:16:21.632Z,81.84
2018-05-25T07:17:21.508Z,81.16
2018-05-25T07:18:21.499Z,81.07
2018-05-25T07:19:21.490Z,79.85
2018-05-25T07:20:21.480Z,79.08
2018-05-25T07:21:21.472Z,77.86
2018-05-25T07:22:21.467Z,77.09
2018-05-25T07:23:21.451Z,76.51
2018-05-25T07:24:21.450Z,77.00
2018-05-25T07:25:21.449Z,78.11
2018-05-25T07:26:21.425Z,78.69
2018-05-25T07:27:21.417Z,78.59
2018-05-25T07:28:21.409Z,78.41
2018-05-25T07:29:21.407Z,78.21
2018-05-25T07:30:21.394Z,78.21
2018-05-25T07:31:21.385Z,78.69
2018-05-25T07:32:21.379Z,77.83
2018-05-25T07:33:21.377Z,77.86
2018-05-25T07:34:21.364Z,77.76
2018-05-25T07:35:21.360Z,77.38
2018-05-25T07:36:21.351Z,78.21
2018-05-25T07:37:21.334Z,77.09
2018-05-25T07:38:21.334Z,77.19
2018-05-25T07:39:21.327Z,76.42
2018-05-25T07:40:21.310Z,76.42
2018-05-25T07:41:21.302Z,76.67
2018-05-25T07:42:21.303Z,77.38
2018-05-25T07:43:21.284Z,77.09
2018-05-25T07:44:21.277Z,75.74
2018-05-25T07:45:21.269Z,76.42
2018-05-25T07:46:21.268Z,77.09
2018-05-25T07:47:21.259Z,77.28
2018-05-25T07:48:21.292Z,76.90
2018-05-25T07:49:21.232Z,76.12
2018-05-25T07:50:21.222Z,78.06
2018-05-25T07:51:21.217Z,78.56
2018-05-25T07:52:21.207Z,79.95
2018-05-25T07:53:21.199Z,79.47
2018-05-25T07:54:21.231Z,78.31
2018-05-25T07:55:21.181Z,77.57
2018-05-25T07:56:21.177Z,78.06
2018-05-25T07:57:21.162Z,77.57
2018-05-25T07:58:21.154Z,78.06
2018-05-25T07:59:21.151Z,77.28
2018-05-25T08:00:21.166Z,77.28
2018-05-25T08:01:21.137Z,77.28
2018-05-25T08:02:21.117Z,77.00
2018-05-25T08:03:21.124Z,78.41
2018-05-25T08:04:21.101Z,79.91
2018-05-25T08:05:21.112Z,79.81
2018-05-25T08:06:21.139Z,80.05
2018-05-25T08:07:21.093Z,79.95
2018-05-25T08:08:21.071Z,79.47
2018-05-25T08:09:21.061Z,78.41
2018-05-25T08:10:21.051Z,79.66
2018-05-25T08:11:21.049Z,78.89
2018-05-25T08:12:21.031Z,78.21
2018-05-25T08:13:21.066Z,77.53
2018-05-25T08:14:21.014Z,77.34
2018-05-25T08:15:21.007Z,77.25
2018-05-25T08:16:20.999Z,77.63
2018-05-25T08:17:20.987Z,77.44
2018-05-25T08:18:20.978Z,78.02
2018-05-25T08:19:20.969Z,78.41
2018-05-25T08:20:20.960Z,78.41
2018-05-25T08:21:20.950Z,78.79
2018-05-25T08:22:20.941Z,77.63
2018-05-25T08:23:20.937Z,77.48
2018-05-25T08:24:20.927Z,77.44
2018-05-25T08:25:20.912Z,77.57
2018-05-25T08:26:20.903Z,77.09
2018-05-25T08:27:20.895Z,76.90
2018-05-25T08:28:20.884Z,77.28
2018-05-25T08:29:20.876Z,76.51
2018-05-25T08:30:20.869Z,75.45
2018-05-25T08:31:20.863Z,76.12
2018-05-25T08:32:20.847Z,75.39
2018-05-25T08:33:20.846Z,75.39
2018-05-25T08:34:20.830Z,74.85
2018-05-25T08:35:20.817Z,74.07
2018-05-25T08:36:20.821Z,73.20
2018-05-25T08:37:20.802Z,74.17
2018-05-25T08:38:20.789Z,74.27
2018-05-25T08:39:20.779Z,73.78
2018-05-25T08:40:20.770Z,73.04
2018-05-25T08:41:20.760Z,73.04
2018-05-25T08:42:20.751Z,71.24
2018-05-25T08:43:20.752Z,71.11
2018-05-25T08:44:20.734Z,71.82
2018-05-25T08:45:20.738Z,71.50
2018-05-25T08:46:20.722Z,70.95
2018-05-25T08:47:20.712Z,71.11
2018-05-25T08:48:20.703Z,70.95
2018-05-25T08:49:20.688Z,70.04
2018-05-25T08:50:20.688Z,70.92
2018-05-25T08:51:20.670Z,72.68
2018-05-25T08:52:20.658Z,74.90
2018-05-25T08:53:20.653Z,75.29
2018-05-25T08:54:20.649Z,75.20
2018-05-25T08:55:20.633Z,75.13
2018-05-25T08:56:20.629Z,74.17
2018-05-25T08:57:20.614Z,73.63
2018-05-25T08:58:20.620Z,72.27
2018-05-25T08:59:20.597Z,72.27
2018-05-25T09:00:20.589Z,72.66
2018-05-25T09:01:20.630Z,72.75
2018-05-25T09:02:20.579Z,72.95
2018-05-25T09:03:20.566Z,72.95
2018-05-25T09:04:20.556Z,72.27
2018-05-25T09:05:20.549Z,72.75
2018-05-25T09:06:20.541Z,73.24
2018-05-25T09:07:20.538Z,72.50
2018-05-25T09:08:20.525Z,71.18
2018-05-25T09:09:20.525Z,70.60
2018-05-25T09:10:20.515Z,69.18
2018-05-25T09:11:20.512Z,69.08
2018-05-25T09:12:20.613Z,68.34
2018-05-25T09:13:20.507Z,68.18
2018-05-25T09:14:20.482Z,66.63
2018-05-25T09:15:20.476Z,66.27
2018-05-25T09:16:20.475Z,65.30
2018-05-25T09:17:20.461Z,64.69
2018-05-25T09:18:20.453Z,64.72
2018-05-25T09:19:20.447Z,65.79
2018-05-25T09:20:20.438Z,64.53
2018-05-25T09:21:20.431Z,64.40
2018-05-25T09:22:20.432Z,64.59
2018-05-25T09:23:20.419Z,65.47
2018-05-25T09:24:20.447Z,66.40
2018-05-25T09:25:20.409Z,66.79
2018-05-25T09:26:20.398Z,67.47
2018-05-25T09:27:20.391Z,67.76
2018-05-25T09:28:20.385Z,67.27
2018-05-25T09:29:20.379Z,66.79
2018-05-25T09:30:20.372Z,65.95
2018-05-25T09:31:20.376Z,65.56
2018-05-25T09:32:20.364Z,65.47
2018-05-25T09:33:20.353Z,65.79
2018-05-25T09:34:20.347Z,65.27
2018-05-25T09:35:20.340Z,64.59
2018-05-25T09:36:20.350Z,63.82
2018-05-25T09:37:20.329Z,62.59
2018-05-25T09:38:20.422Z,61.91
2018-05-25T09:39:20.318Z,61.16
2018-05-25T09:40:20.312Z,60.84
2018-05-25T09:41:20.305Z,62.39
2018-05-25T09:42:20.304Z,62.29
2018-05-25T09:43:20.351Z,61.74
2018-05-25T09:44:20.289Z,59.95
2018-05-25T09:45:20.292Z,59.21
2018-05-25T09:46:20.287Z,57.75
2018-05-25T09:47:20.291Z,59.08
2018-05-25T09:48:20.275Z,59.08
2018-05-25T09:49:20.278Z,59.69
2018-05-25T09:50:20.258Z,59.31
2018-05-25T09:51:20.252Z,58.56
2018-05-25T09:52:20.249Z,57.90
2018-05-25T09:53:20.244Z,56.27
2018-05-25T09:54:20.240Z,55.13
2018-05-25T09:55:20.243Z,55.82
2018-05-25T09:56:20.231Z,55.04
2018-05-25T09:57:20.237Z,54.85
2018-05-25T09:58:20.229Z,54.55
2018-05-25T09:59:20.325Z,54.77
2018-05-25T10:00:20.248Z,53.73
2018-05-25T10:01:20.219Z,52.41
2018-05-25T10:02:20.217Z,52.29
2018-05-25T10:03:20.208Z,52.00
2018-05-25T10:04:20.209Z,50.85
2018-05-25T10:05:20.203Z,50.75
2018-05-25T10:06:20.198Z,50.95
2018-05-25T10:07:20.196Z,51.43
2018-05-25T10:08:20.196Z,50.81
2018-05-25T10:09:20.194Z,50.24
2018-05-25T10:10:20.194Z,50.02
2018-05-25T10:11:20.196Z,49.04
2018-05-25T10:12:20.200Z,49.58
2018-05-25T10:13:20.211Z,50.10
2018-05-25T10:14:20.197Z,49.82
2018-05-25T10:15:20.212Z,50.10
2018-05-25T10:16:20.245Z,52.34
2018-05-25T10:17:20.202Z,52.48
2018-05-25T10:18:20.197Z,52.36
2018-05-25T10:19:20.201Z,54.13
2018-05-25T10:20:20.203Z,55.96
2018-05-25T10:21:20.205Z,56.51
2018-05-25T10:22:23.442Z,56.87
2018-05-25T10:23:20.224Z,57.10
2018-05-25T10:24:20.207Z,57.00
2018-05-25T10:25:20.224Z,58.21
2018-05-25T10:26:21.027Z,59.44
2018-05-25T10:27:20.222Z,59.54
2018-05-25T10:28:20.220Z,60.38
2018-05-25T10:29:20.207Z,60.58
2018-05-25T10:30:20.206Z,61.91
2018-05-25T10:31:20.204Z,61.16
2018-05-25T10:32:20.204Z,59.90
2018-05-25T10:33:20.204Z,59.34
2018-05-25T10:34:20.202Z,58.82
2018-05-25T10:35:20.199Z,56.61
2018-05-25T10:36:20.205Z,55.40
2018-05-25T10:37:20.194Z,52.36
2018-05-25T10:38:20.196Z,50.34
2018-05-25T10:39:20.201Z,49.80
2018-05-25T10:40:20.196Z,48.46
2018-05-25T10:41:20.208Z,48.09
2018-05-25T10:42:20.194Z,47.72
2018-05-25T10:43:20.197Z,48.14
2018-05-25T10:44:20.200Z,50.24
2018-05-25T10:45:20.201Z,49.39
2018-05-25T10:46:20.196Z,49.56
2018-05-25T10:47:20.202Z,48.93
2018-05-25T10:48:20.197Z,48.16
2018-05-25T10:49:20.198Z,47.21
2018-05-25T10:50:20.209Z,46.82
2018-05-25T10:51:20.224Z,45.40
2018-05-25T10:52:20.208Z,46.33
2018-05-25T10:53:20.206Z,47.70
2018-05-25T10:54:20.219Z,49.07
2018-05-25T10:55:20.210Z,50.70
2018-05-25T10:56:20.215Z,49.95
2018-05-25T10:57:20.217Z,48.44
2018-05-25T10:58:20.229Z,48.44
2018-05-25T10:59:20.222Z,47.85
2018-05-25T11:00:20.226Z,47.66
2018-05-25T11:01:20.228Z,47.77
2018-05-25T11:02:20.240Z,47.19
2018-05-25T11:03:20.244Z,49.54
2018-05-25T11:04:20.237Z,53.26
2018-05-25T11:05:20.264Z,54.43
2018-05-25T11:06:20.246Z,53.80
2018-05-25T11:07:20.263Z,51.97
2018-05-25T11:08:20.252Z,51.56
2018-05-25T11:09:20.261Z,52.44
2018-05-25T11:10:20.255Z,52.00
2018-05-25T11:11:20.258Z,50.75
2018-05-25T11:12:20.259Z,49.78
2018-05-25T11:13:20.271Z,49.68
2018-05-25T11:14:20.266Z,50.20
2018-05-25T11:15:20.278Z,48.07
2018-05-25T11:17:54.108Z,46.57
2018-05-25T11:18:54.114Z,46.14
2018-05-25T11:19:54.121Z,49.49
2018-05-25T11:20:54.163Z,51.48
2018-05-25T11:21:54.121Z,51.12
2018-05-25T11:22:54.126Z,51.75
2018-05-25T11:23:54.128Z,51.21
2018-05-25T11:24:54.132Z,49.66
2018-05-25T11:25:54.140Z,48.93
2018-05-25T11:26:54.152Z,47.75
2018-05-25T11:27:54.145Z,49.71
2018-05-25T11:28:54.150Z,50.73
2018-05-25T11:29:54.160Z,50.58
2018-05-25T11:30:54.156Z,49.83
2018-05-25T11:31:54.167Z,48.51
2018-05-25T11:32:54.166Z,48.32
2018-05-25T11:33:54.167Z,49.37
2018-05-25T11:34:54.179Z,49.07
2018-05-25T11:35:54.176Z,48.39
2018-05-25T11:36:54.177Z,50.95
2018-05-25T11:37:54.183Z,52.40
2018-05-25T11:38:54.191Z,51.80
2018-05-25T11:39:54.189Z,50.95
2018-05-25T11:40:54.196Z,52.84
2018-05-25T11:41:54.202Z,52.94
2018-05-25T11:42:54.196Z,54.54
2018-05-25T11:43:54.198Z,54.74
2018-05-25T11:44:54.211Z,54.54
2018-05-25T11:45:54.205Z,56.57
2018-05-25T11:46:54.205Z,57.47
2018-05-25T11:47:54.201Z,56.07
2018-05-25T11:48:54.207Z,54.64
2018-05-25T11:49:54.201Z,56.04
2018-05-25T11:50:54.203Z,56.98
2018-05-25T11:51:54.200Z,57.01
2018-05-25T11:52:54.198Z,57.15
2018-05-25T11:53:54.196Z,58.73
2018-05-25T11:54:54.195Z,56.79
2018-05-25T11:55:54.200Z,56.89
2018-05-25T11:56:54.189Z,56.82
2018-05-25T11:57:54.203Z,56.52
2018-05-25T11:58:54.186Z,57.11
2018-05-25T11:59:54.189Z,57.11
2018-05-25T12:00:54.183Z,56.65
2018-05-25T12:01:54.255Z,56.26
2018-05-25T12:02:54.179Z,57.11
2018-05-25T12:03:54.167Z,57.73
2018-05-25T12:04:54.161Z,58.70
2018-05-25T12:05:54.157Z,59.19
2018-05-25T12:06:54.157Z,59.38
2018-05-25T12:07:54.145Z,59.77
2018-05-25T12:08:54.151Z,59.09
2018-05-25T12:09:54.138Z,58.90
2018-05-25T12:10:54.135Z,58.64
2018-05-25T12:11:54.131Z,57.86
2018-05-25T12:12:54.123Z,57.98
2018-05-25T12:13:54.122Z,57.98
2018-05-25T12:14:54.110Z,56.95
2018-05-25T12:15:54.104Z,56.92
2018-05-25T12:16:54.105Z,57.79
2018-05-25T12:17:54.098Z,58.25
2018-05-25T12:18:54.088Z,59.03
2018-05-25T12:19:54.081Z,58.64
2018-05-25T12:20:54.075Z,58.61
2018-05-25T12:21:54.071Z,59.09
2018-05-25T12:22:54.066Z,60.16
2018-05-25T12:23:54.067Z,60.91
2018-05-25T12:24:54.055Z,62.36
2018-05-25T12:25:54.043Z,62.10
2018-05-25T12:26:54.045Z,60.38
2018-05-25T12:27:54.039Z,60.64
2018-05-25T12:28:54.031Z,61.84
2018-05-25T12:29:54.021Z,60.48
2018-05-25T12:30:54.013Z,59.83
2018-05-25T12:31:54.002Z,59.05
2018-05-25T12:32:54.012Z,59.92
2018-05-25T12:33:53.994Z,59.05
2018-05-25T12:34:53.984Z,59.34
2018-05-25T12:35:53.985Z,59.15
2018-05-25T12:36:53.971Z,58.57
2018-05-25T12:37:53.962Z,58.11
2018-05-25T12:38:53.959Z,57.56
2018-05-25T12:39:53.956Z,57.14
2018-05-25T12:40:53.942Z,57.85
2018-05-25T12:41:53.943Z,56.97
2018-05-25T12:42:53.929Z,57.33
2018-05-25T12:43:53.921Z,58.64
2018-05-25T12:44:53.934Z,59.00
2018-05-25T12:45:53.920Z,58.80
2018-05-25T12:46:53.903Z,59.28
2018-05-25T12:47:53.900Z,59.09
2018-05-25T12:48:53.899Z,59.91
2018-05-25T12:49:53.879Z,60.10
2018-05-25T12:50:53.889Z,59.84
2018-05-25T12:51:53.873Z,60.52
2018-05-25T12:52:53.859Z,59.77
2018-05-25T12:53:53.849Z,59.03